Time;durP1;ratioP1;P1;durP2;ratioP2;P2;SDS_P1;SDS_P2;PMS_P1;PMS_P2;Temp;Humidity;BMP_temperature;BMP_pressure;BME280_temperature;BME280_humidity;BME280_pressure;Samples;Min_cycle;Max_cycle;Signal;HPM_P1;HPM_P2
2021/03/20 00:01:23;;;;;;;9.23;6.35;;;0.70;85.10;;;;;;5006371;28;20065;-50
2021/03/20 00:03:49;;;;;;;10.63;7.22;;;0.70;85.50;;;;;;5006837;28;20046;-48
2021/03/20 00:06:18;;;;;;;9.75;6.75;;;0.70;84.70;;;;;;5006499;28;20049;-46
2021/03/20 00:08:47;;;;;;;10.73;7.47;;;0.70;85.10;;;;;;5000815;28;20042;-51
2021/03/20 00:11:17;;;;;;;9.90;7.82;;;0.70;85.40;;;;;;5013177;28;20080;-47
2021/03/20 00:13:44;;;;;;;13.73;7.95;;;0.60;85.90;;;;;;5007080;28;20655;-48
2021/03/20 00:16:12;;;;;;;10.77;7.20;;;0.60;85.50;;;;;;5007457;28;20054;-46
2021/03/20 00:18:38;;;;;;;15.30;8.07;;;0.60;85.80;;;;;;5007518;28;20078;-47
2021/03/20 00:21:06;;;;;;;16.42;9.02;;;0.50;85.50;;;;;;5007202;28;20050;-49
2021/03/20 00:23:34;;;;;;;28.67;12.35;;;0.50;85.40;;;;;;5006024;28;20057;-49
2021/03/20 00:26:00;;;;;;;26.45;11.80;;;0.50;86.10;;;;;;5006899;28;20058;-46
2021/03/20 00:28:28;;;;;;;23.45;10.80;;;0.40;85.80;;;;;;5006627;28;20462;-50
2021/03/20 00:31:02;;;;;;;21.65;11.63;;;0.40;86.60;;;;;;5006908;28;20073;-47
2021/03/20 00:33:29;;;;;;;15.93;8.57;;;0.30;85.40;;;;;;5007935;28;20049;-46
2021/03/20 00:36:00;;;;;;;13.50;8.23;;;0.30;85.60;;;;;;5005501;28;20053;-49
2021/03/20 00:38:27;;;;;;;13.65;8.25;;;0.30;86.00;;;;;;5007210;28;20049;-53
2021/03/20 00:40:55;;;;;;;14.35;7.63;;;0.30;86.50;;;;;;5014132;28;20042;-49
2021/03/20 00:43:21;;;;;;;11.18;7.53;;;0.30;86.20;;;;;;5006785;28;20050;-48
2021/03/20 00:45:50;;;;;;;10.25;7.55;;;0.30;86.70;;;;;;5006009;28;20131;-47
2021/03/20 00:48:19;;;;;;;9.43;6.95;;;0.30;87.00;;;;;;5008514;28;20046;-48
2021/03/20 00:50:45;;;;;;;8.98;6.68;;;0.30;87.20;;;;;;5008725;28;20045;-48
2021/03/20 00:53:12;;;;;;;9.88;6.95;;;0.30;86.70;;;;;;5009335;28;20046;-50
2021/03/20 00:55:38;;;;;;;12.02;7.75;;;0.30;86.60;;;;;;5008405;28;20049;-45
2021/03/20 00:58:37;;;;;;;8.27;5.95;;;0.30;87.20;;;;;;5008556;28;20133;-47
2021/03/20 01:01:12;;;;;;;10.57;7.30;;;0.20;87.60;;;;;;5006677;28;20065;-47
2021/03/20 01:03:42;;;;;;;7.22;6.15;;;0.20;87.20;;;;;;5006895;28;20080;-49
2021/03/20 01:06:10;;;;;;;10.70;6.90;;;0.10;87.00;;;;;;5006043;28;20390;-47
2021/03/20 01:08:36;;;;;;;9.90;6.68;;;0.10;87.60;;;;;;5006844;28;20633;-46
2021/03/20 01:11:04;;;;;;;11.85;7.22;;;0.10;87.90;;;;;;5006309;28;20062;-47
2021/03/20 01:13:30;;;;;;;11.10;6.82;;;0.10;87.60;;;;;;5006729;28;20045;-49
2021/03/20 01:15:55;;;;;;;9.50;7.03;;;0.10;87.40;;;;;;5005177;28;20100;-49
2021/03/20 01:18:22;;;;;;;10.13;6.55;;;0.00;87.20;;;;;;5006535;28;20060;-46
2021/03/20 01:20:50;;;;;;;9.60;7.45;;;0.00;88.00;;;;;;5010205;28;20054;-48
2021/03/20 01:23:16;;;;;;;10.57;6.75;;;0.00;87.50;;;;;;5010017;28;20058;-49
2021/03/20 01:25:42;;;;;;;10.77;7.25;;;-0.10;87.80;;;;;;5009377;28;20050;-46
2021/03/20 01:28:09;;;;;;;10.35;7.50;;;-0.10;88.00;;;;;;5009720;28;20049;-47
2021/03/20 01:30:37;;;;;;;11.45;7.05;;;-0.10;88.00;;;;;;5004050;28;20033;-47
2021/03/20 01:33:03;;;;;;;9.35;6.00;;;-0.10;88.00;;;;;;5010055;28;20085;-47
2021/03/20 01:35:30;;;;;;;10.65;7.75;;;-0.10;88.00;;;;;;5009311;28;20136;-49
2021/03/20 01:37:57;;;;;;;10.25;7.38;;;-0.10;89.10;;;;;;5009531;28;20500;-45
2021/03/20 01:40:30;;;;;;;10.02;8.02;;;-0.10;89.40;;;;;;5013794;28;20042;-48
2021/03/20 01:42:56;;;;;;;9.00;6.50;;;-0.10;89.30;;;;;;5005971;28;20532;-48
2021/03/20 01:45:27;;;;;;;9.77;6.57;;;-0.10;89.10;;;;;;5009644;28;20046;-49
2021/03/20 01:48:10;;;;;;;8.75;6.78;;;-0.20;89.10;;;;;;5008741;28;20069;-47
2021/03/20 01:50:47;;;;;;;9.48;7.60;;;-0.30;88.50;;;;;;5010445;28;20053;-49
2021/03/20 01:53:38;;;;;;;14.00;7.93;;;-0.30;89.70;;;;;;5009005;28;20487;-46
2021/03/20 01:56:07;;;;;;;11.52;7.35;;;-0.40;89.80;;;;;;5008855;28;20486;-47
2021/03/20 01:58:35;;;;;;;12.57;7.47;;;-0.40;90.10;;;;;;5013524;28;20152;-46
2021/03/20 02:01:19;;;;;;;12.65;8.07;;;-0.40;90.10;;;;;;5009163;28;20541;-47
2021/03/20 02:03:46;;;;;;;12.10;8.13;;;-0.40;90.00;;;;;;5008238;28;20074;-48
2021/03/20 02:06:12;;;;;;;9.95;7.57;;;-0.40;90.20;;;;;;5008504;28;20499;-47
2021/03/20 02:08:44;;;;;;;11.20;7.47;;;-0.40;90.30;;;;;;5010967;28;20050;-47
2021/03/20 02:11:49;;;;;;;11.98;7.53;;;-0.40;90.10;;;;;;5008047;28;20552;-50
2021/03/20 02:14:36;;;;;;;10.85;7.65;;;-0.40;90.00;;;;;;5012094;28;20180;-46
2021/03/20 02:17:19;;;;;;;9.50;6.50;;;-0.50;89.60;;;;;;5007808;28;20494;-46
2021/03/20 02:20:06;;;;;;;8.38;6.38;;;-0.50;88.80;;;;;;5009192;28;20441;-47
2021/03/20 02:22:50;;;;;;;8.43;6.80;;;-0.60;87.90;;;;;;5011855;28;20046;-48
2021/03/20 02:25:27;;;;;;;12.13;7.75;;;-0.60;89.30;;;;;;5005379;28;20072;-49
2021/03/20 02:28:17;;;;;;;12.25;8.10;;;-0.60;90.00;;;;;;5007175;28;20050;-47
2021/03/20 02:30:46;;;;;;;9.43;6.95;;;-0.60;89.50;;;;;;5015425;28;20076;-50
2021/03/20 02:33:39;;;;;;;11.77;7.55;;;-0.60;90.00;;;;;;5008967;28;20411;-48
2021/03/20 02:36:16;;;;;;;9.25;7.82;;;-0.60;90.10;;;;;;5009086;28;20474;-50
2021/03/20 02:38:53;;;;;;;10.27;7.57;;;-0.60;90.10;;;;;;5013157;28;20153;-54
2021/03/20 02:41:27;;;;;;;10.43;7.82;;;-0.60;90.30;;;;;;5008886;28;20049;-46
2021/03/20 02:44:13;;;;;;;9.38;6.97;;;-0.60;90.10;;;;;;5008349;28;20155;-47
2021/03/20 02:46:50;;;;;;;11.98;7.43;;;-0.60;90.20;;;;;;5010630;28;20049;-46
2021/03/20 02:49:25;;;;;;;10.30;7.93;;;-0.60;90.30;;;;;;5008580;28;20573;-48
2021/03/20 02:51:58;;;;;;;12.23;8.48;;;-0.70;90.30;;;;;;5010634;28;20057;-51
2021/03/20 02:54:32;;;;;;;9.82;7.07;;;-0.70;90.20;;;;;;5008904;28;20042;-49
2021/03/20 02:57:06;;;;;;;11.75;8.40;;;-0.70;90.20;;;;;;5012277;28;20042;-48
2021/03/20 02:59:39;;;;;;;11.18;8.40;;;-0.70;90.40;;;;;;5012137;28;20053;-48
2021/03/20 03:02:10;;;;;;;12.75;9.50;;;-0.80;90.10;;;;;;5008760;28;20041;-49
2021/03/20 03:04:46;;;;;;;11.07;7.95;;;-0.80;89.40;;;;;;5008621;28;20136;-46
2021/03/20 03:07:23;;;;;;;11.18;7.88;;;-0.80;89.30;;;;;;5011792;28;20506;-47
2021/03/20 03:10:20;;;;;;;10.88;7.95;;;-0.80;89.90;;;;;;5007817;28;20068;-47
2021/03/20 03:13:00;;;;;;;9.75;7.53;;;-0.90;90.20;;;;;;5001493;28;20473;-47
2021/03/20 03:15:34;;;;;;;10.00;7.85;;;-0.90;90.00;;;;;;5014731;28;20062;-47
2021/03/20 03:18:17;;;;;;;13.07;7.97;;;-0.90;89.50;;;;;;5008064;28;20049;-47
2021/03/20 03:20:47;;;;;;;12.30;8.23;;;-1.00;89.10;;;;;;5010427;28;20092;-46
2021/03/20 03:23:18;;;;;;;12.32;8.35;;;-1.00;90.00;;;;;;5002910;28;20502;-47
2021/03/20 03:25:47;;;;;;;13.73;8.23;;;-0.90;90.40;;;;;;5007785;28;20120;-46
2021/03/20 03:28:18;;;;;;;9.80;7.70;;;-1.00;90.30;;;;;;5007255;28;20053;-49
2021/03/20 03:30:44;;;;;;;11.27;8.77;;;-1.00;90.30;;;;;;5007078;28;20101;-47
2021/03/20 03:33:23;;;;;;;12.52;8.23;;;-1.00;90.00;;;;;;5007384;28;20414;-47
2021/03/20 03:35:56;;;;;;;15.23;8.98;;;-1.00;90.10;;;;;;5004608;28;20052;-48
2021/03/20 03:38:45;;;;;;;12.30;9.02;;;-1.00;90.00;;;;;;4996134;28;20085;-48
2021/03/20 03:41:33;;;;;;;13.77;8.60;;;-1.10;90.20;;;;;;5005077;28;20058;-48
2021/03/20 03:44:00;;;;;;;13.73;8.63;;;-1.10;90.30;;;;;;5005551;28;20054;-47
2021/03/20 03:46:40;;;;;;;12.60;8.88;;;-1.10;90.00;;;;;;5007781;28;20058;-49
2021/03/20 03:49:11;;;;;;;12.20;8.98;;;-1.20;90.00;;;;;;5007391;28;20085;-47
2021/03/20 03:51:36;;;;;;;13.63;9.05;;;-1.20;90.20;;;;;;5005356;28;20050;-48
2021/03/20 03:54:03;;;;;;;11.98;7.95;;;-1.10;90.80;;;;;;5007044;28;20550;-50
2021/03/20 03:56:41;;;;;;;12.10;9.23;;;-1.10;91.00;;;;;;5009821;28;20050;-47
2021/03/20 03:59:37;;;;;;;12.13;9.38;;;-1.10;91.10;;;;;;5010694;28;20059;-49
2021/03/20 04:02:51;;;;;;;12.52;8.52;;;-1.10;91.20;;;;;;5008020;28;20046;-49
2021/03/20 04:05:41;;;;;;;11.98;8.93;;;-1.10;91.20;;;;;;5009245;28;20140;-47
2021/03/20 04:08:29;;;;;;;12.27;8.55;;;-1.20;91.00;;;;;;5004799;28;20054;-48
2021/03/20 04:11:02;;;;;;;12.95;8.65;;;-1.20;90.70;;;;;;5011408;28;20050;-47
2021/03/20 04:14:03;;;;;;;12.82;8.15;;;-1.20;91.00;;;;;;5007064;28;20212;-46
2021/03/20 04:16:51;;;;;;;13.50;8.63;;;-1.20;91.00;;;;;;4999348;28;20054;-48
2021/03/20 04:19:51;;;;;;;10.18;8.50;;;-1.20;90.80;;;;;;5011506;28;20120;-48
2021/03/20 04:22:31;;;;;;;13.80;10.50;;;-1.20;90.90;;;;;;5006866;28;20054;-47
2021/03/20 04:25:30;;;;;;;12.52;9.57;;;-1.20;90.80;;;;;;5007411;28;20120;-45
2021/03/20 04:28:42;;;;;;;11.63;8.88;;;-1.20;90.80;;;;;;5005916;28;20049;-48
2021/03/20 04:31:29;;;;;;;15.77;9.35;;;-1.30;90.80;;;;;;4970743;28;20065;-47
2021/03/20 04:34:04;;;;;;;12.07;8.45;;;-1.20;91.00;;;;;;4983920;28;20065;-46
2021/03/20 04:36:39;;;;;;;17.27;8.82;;;-1.30;90.50;;;;;;4983491;28;20055;-45
2021/03/20 04:39:08;;;;;;;11.77;9.35;;;-1.30;90.70;;;;;;4983755;28;20061;-47
2021/03/20 04:41:34;;;;;;;13.13;10.43;;;-1.30;91.20;;;;;;4988032;28;20813;-44
2021/03/20 04:44:00;;;;;;;10.73;8.55;;;-1.20;91.20;;;;;;4986156;28;20129;-50
2021/03/20 04:46:32;;;;;;;13.75;8.90;;;-1.30;91.30;;;;;;4984274;28;20739;-50
2021/03/20 04:49:34;;;;;;;11.75;9.00;;;-1.30;90.90;;;;;;4980478;28;20933;-48
2021/03/20 04:52:09;;;;;;;12.07;8.18;;;-1.30;90.90;;;;;;4984085;28;20042;-48
2021/03/20 04:54:35;;;;;;;11.38;8.75;;;-1.40;90.70;;;;;;4985284;28;20061;-49
2021/03/20 04:57:10;;;;;;;10.93;9.15;;;-1.40;90.80;;;;;;4987129;28;20072;-46
2021/03/20 04:59:46;;;;;;;12.65;9.70;;;-1.40;90.80;;;;;;4990267;28;20561;-49
2021/03/20 05:02:22;;;;;;;11.70;9.45;;;-1.40;91.00;;;;;;4987323;28;20046;-47
2021/03/20 05:04:51;;;;;;;12.55;9.80;;;-1.40;91.20;;;;;;4984527;28;20051;-46
2021/03/20 05:07:18;;;;;;;13.48;9.93;;;-1.40;91.30;;;;;;4988966;28;20058;-48
2021/03/20 05:09:58;;;;;;;13.45;10.63;;;-1.40;91.20;;;;;;5010124;28;20049;-46
2021/03/20 05:12:28;;;;;;;14.55;11.38;;;-1.40;91.10;;;;;;5010074;28;20073;-46
2021/03/20 05:15:02;;;;;;;16.70;11.18;;;-1.50;91.00;;;;;;5013341;28;20469;-49
2021/03/20 05:17:32;;;;;;;13.52;10.43;;;-1.50;90.90;;;;;;5009318;28;20050;-48
2021/03/20 05:19:59;;;;;;;15.82;11.52;;;-1.50;91.10;;;;;;5009305;28;20041;-51
2021/03/20 05:22:31;;;;;;;14.23;10.95;;;-1.50;91.40;;;;;;5010085;28;20156;-46
2021/03/20 05:24:59;;;;;;;14.70;11.07;;;-1.50;91.50;;;;;;5010094;28;20064;-51
2021/03/20 05:27:28;;;;;;;15.32;11.60;;;-1.40;91.50;;;;;;5009374;28;20726;-47
2021/03/20 05:29:57;;;;;;;13.48;9.90;;;-1.50;91.70;;;;;;5010399;28;20096;-47
2021/03/20 05:32:29;;;;;;;13.35;9.75;;;-1.50;91.70;;;;;;5010616;28;20050;-48
2021/03/20 05:34:57;;;;;;;12.05;9.70;;;-1.50;91.30;;;;;;5007101;28;20045;-48
2021/03/20 05:37:36;;;;;;;14.02;10.18;;;-1.50;91.10;;;;;;5010044;28;20049;-49
2021/03/20 05:40:04;;;;;;;12.32;10.43;;;-1.50;91.30;;;;;;5008885;28;20137;-47
2021/03/20 05:42:46;;;;;;;13.38;10.93;;;-1.50;91.40;;;;;;5009122;28;20054;-48
2021/03/20 05:45:27;;;;;;;12.07;9.68;;;-1.50;91.20;;;;;;5014668;28;20498;-48
2021/03/20 05:48:08;;;;;;;16.80;11.68;;;-1.60;90.60;;;;;;5008874;28;20054;-49
2021/03/20 05:50:46;;;;;;;16.23;11.20;;;-1.60;90.70;;;;;;5009260;28;20410;-48
2021/03/20 05:53:37;;;;;;;13.70;10.38;;;-1.60;91.30;;;;;;5005971;28;20045;-49
2021/03/20 05:56:26;;;;;;;13.65;10.70;;;-1.50;91.40;;;;;;5009022;28;20057;-49
2021/03/20 05:59:01;;;;;;;14.80;10.48;;;-1.50;91.40;;;;;;5006118;28;20049;-49
2021/03/20 06:01:41;;;;;;;14.00;10.27;;;-1.50;91.50;;;;;;5008258;28;20042;-49
2021/03/20 06:04:25;;;;;;;13.07;10.32;;;-1.50;91.10;;;;;;5008253;28;20557;-49
2021/03/20 06:07:14;;;;;;;13.90;10.38;;;-1.50;91.20;;;;;;5008569;28;20060;-50
2021/03/20 06:10:10;;;;;;;10.88;9.45;;;-1.50;91.30;;;;;;5008712;28;20052;-46
2021/03/20 06:13:04;;;;;;;14.30;10.40;;;-1.40;91.70;;;;;;4911454;29;20044;-46
2021/03/20 06:15:36;;;;;;;14.73;10.02;;;-1.40;92.30;;;;;;4907720;29;20056;-46
2021/03/20 06:18:26;;;;;;;13.88;10.27;;;-1.30;92.50;;;;;;4910995;29;20055;-59
2021/03/20 06:21:02;;;;;;;13.75;9.88;;;-1.10;92.90;;;;;;4917244;29;20056;-56
2021/03/20 06:23:44;;;;;;;11.70;9.52;;;-1.10;92.80;;;;;;4930528;29;20205;-50
2021/03/20 06:26:30;;;;;;;13.05;10.90;;;-1.00;92.70;;;;;;4913637;29;20055;-48
2021/03/20 06:29:07;;;;;;;14.35;11.20;;;-0.90;93.10;;;;;;4919929;29;20040;-50
2021/03/20 06:31:40;;;;;;;14.45;11.82;;;-0.90;93.00;;;;;;4921976;29;20094;-50
2021/03/20 06:34:23;;;;;;;13.98;11.02;;;-0.70;92.90;;;;;;4914867;29;20100;-49
2021/03/20 06:37:00;;;;;;;14.80;10.63;;;-0.60;92.70;;;;;;4915842;29;20052;-50
2021/03/20 06:39:39;;;;;;;13.77;9.57;;;-0.50;92.70;;;;;;4919575;29;20051;-50
2021/03/20 06:42:18;;;;;;;13.35;10.48;;;-0.40;92.50;;;;;;4916994;29;20083;-54
2021/03/20 06:44:46;;;;;;;14.10;10.68;;;-0.30;92.40;;;;;;4912286;29;20200;-51
2021/03/20 06:47:24;;;;;;;12.00;9.73;;;-0.20;92.30;;;;;;4917509;29;20100;-49
2021/03/20 06:50:19;;;;;;;126.80;80.57;;;-0.10;92.10;;;;;;4960757;28;20061;-47
2021/03/20 06:52:55;;;;;;;17.35;12.43;;;0.10;91.90;;;;;;5007631;28;20134;-47
2021/03/20 06:55:34;;;;;;;15.50;11.98;;;0.20;91.70;;;;;;5007765;28;20817;-53
2021/03/20 06:58:21;;;;;;;14.00;11.05;;;0.30;91.60;;;;;;5010449;28;20038;-50
2021/03/20 07:00:48;;;;;;;13.35;10.52;;;0.40;91.40;;;;;;5005315;28;20049;-55
2021/03/20 07:03:13;;;;;;;17.45;13.43;;;0.50;91.10;;;;;;5007261;28;20485;-51
2021/03/20 07:05:45;;;;;;;18.10;10.90;;;0.70;90.40;;;;;;5006546;28;20056;-56
2021/03/20 07:08:44;;;;;;;13.02;9.57;;;0.70;90.00;;;;;;5003742;28;20491;-53
2021/03/20 07:11:41;;;;;;;15.18;9.75;;;0.80;90.00;;;;;;5004690;28;20588;-52
2021/03/20 07:14:11;;;;;;;13.57;9.57;;;0.70;90.00;;;;;;5006207;28;20521;-56
2021/03/20 07:16:58;;;;;;;16.77;9.00;;;0.70;89.50;;;;;;5003199;28;20092;-57
2021/03/20 07:19:24;;;;;;;9.70;8.65;;;0.90;89.00;;;;;;5008444;28;20053;-56
2021/03/20 07:21:58;;;;;;;11.95;8.77;;;1.00;88.10;;;;;;4999652;28;20046;-49
2021/03/20 07:24:43;;;;;;;95.18;66.32;;;1.10;88.00;;;;;;5006502;28;20070;-52
2021/03/20 07:27:14;;;;;;;17.15;13.13;;;1.20;87.90;;;;;;5007511;28;20238;-51
2021/03/20 07:29:43;;;;;;;37.60;25.00;;;1.20;87.80;;;;;;5007310;28;20046;-51
2021/03/20 07:32:13;;;;;;;23.23;15.80;;;1.30;87.30;;;;;;5005155;28;20144;-55
2021/03/20 07:34:42;;;;;;;14.00;10.38;;;1.40;87.30;;;;;;5005357;28;20053;-58
2021/03/20 07:37:20;;;;;;;16.73;10.18;;;1.60;86.50;;;;;;5007165;28;20725;-53
2021/03/20 07:39:59;;;;;;;11.45;9.35;;;1.60;85.30;;;;;;5013298;28;20501;-49
2021/03/20 07:42:39;;;;;;;13.70;11.05;;;1.70;85.20;;;;;;5006519;28;20052;-50
2021/03/20 07:45:17;;;;;;;10.30;8.20;;;1.90;85.10;;;;;;5006749;28;20130;-49
2021/03/20 07:47:55;;;;;;;14.40;8.50;;;1.90;83.10;;;;;;5004612;28;20042;-52
2021/03/20 07:50:26;;;;;;;12.05;8.65;;;2.00;83.70;;;;;;5006139;28;20077;-52
2021/03/20 07:53:16;;;;;;;11.10;8.23;;;2.10;82.40;;;;;;5003718;28;20092;-53
2021/03/20 07:56:03;;;;;;;11.60;7.57;;;2.30;83.00;;;;;;4985526;28;20054;-58
2021/03/20 07:58:45;;;;;;;8.68;6.50;;;2.50;81.10;;;;;;5005341;28;20501;-58
2021/03/20 08:01:32;;;;;;;9.00;6.72;;;2.90;80.30;;;;;;5005987;28;20129;-50
2021/03/20 08:04:01;;;;;;;9.90;6.25;;;3.00;79.00;;;;;;5006810;28;20399;-53
2021/03/20 08:06:42;;;;;;;7.85;6.32;;;3.10;78.20;;;;;;5008607;28;20056;-58
2021/03/20 08:09:18;;;;;;;8.85;5.70;;;3.30;77.20;;;;;;5003979;28;20042;-53
2021/03/20 08:11:47;;;;;;;6.47;5.00;;;3.40;75.70;;;;;;5002319;28;20144;-50
2021/03/20 08:14:27;;;;;;;9.95;5.50;;;3.40;76.00;;;;;;5011003;28;20052;-49
2021/03/20 08:16:53;;;;;;;11.38;6.47;;;3.50;75.20;;;;;;5003039;28;20092;-50
2021/03/20 08:19:19;;;;;;;7.55;4.90;;;3.70;75.70;;;;;;4986938;28;20495;-47
2021/03/20 08:22:32;;;;;;;11.50;8.65;;;4.00;74.00;;;;;;5002480;28;20050;-49
2021/03/20 08:25:13;;;;;;;29.42;20.98;;;4.00;72.40;;;;;;5000192;28;20061;-49
2021/03/20 08:28:07;;;;;;;16.48;11.68;;;4.70;73.70;;;;;;4998254;28;20046;-47
2021/03/20 08:31:07;;;;;;;10.77;7.55;;;5.00;72.10;;;;;;5001338;28;20403;-52
2021/03/20 08:33:38;;;;;;;9.55;6.65;;;5.60;68.80;;;;;;5000874;28;20049;-50
2021/03/20 08:36:35;;;;;;;11.82;6.82;;;6.20;68.90;;;;;;5010085;28;20809;-47
2021/03/20 08:39:45;;;;;;;9.30;6.13;;;6.70;65.00;;;;;;5001374;28;20480;-48
2021/03/20 08:42:39;;;;;;;10.27;7.07;;;7.60;60.60;;;;;;4901446;29;20080;-52
2021/03/20 08:45:17;;;;;;;10.80;7.03;;;7.70;58.70;;;;;;4899617;29;20153;-50
2021/03/20 08:48:05;;;;;;;10.57;7.18;;;8.30;62.80;;;;;;4895135;29;20538;-50
2021/03/20 08:50:44;;;;;;;48.28;38.97;;;8.50;58.30;;;;;;4904143;29;20052;-48
2021/03/20 08:53:13;;;;;;;25.75;20.77;;;8.70;60.50;;;;;;4898064;29;20113;-48
2021/03/20 08:56:13;;;;;;;16.42;12.07;;;8.90;61.40;;;;;;4901656;29;20068;-46
2021/03/20 08:59:03;;;;;;;15.73;11.02;;;8.90;54.70;;;;;;4847076;29;20065;-45
2021/03/20 09:02:05;;;;;;;9.70;6.88;;;9.10;56.30;;;;;;4850320;29;20809;-48
2021/03/20 09:04:33;;;;;;;11.13;8.40;;;9.00;55.80;;;;;;4821143;29;20081;-60
2021/03/20 09:07:16;;;;;;;11.60;9.30;;;9.30;55.90;;;;;;4815612;29;20050;-58
2021/03/20 09:09:50;;;;;;;17.42;10.55;;;9.80;55.80;;;;;;4798907;29;20515;-59
2021/03/20 09:12:40;;;;;;;15.70;11.57;;;9.30;57.20;;;;;;4811418;29;20123;-59
2021/03/20 09:15:29;;;;;;;16.38;12.82;;;9.00;55.30;;;;;;4822047;29;20050;-58
2021/03/20 09:18:01;;;;;;;19.05;13.57;;;8.60;56.60;;;;;;4825524;29;20607;-58
2021/03/20 09:20:48;;;;;;;13.93;10.90;;;8.30;60.70;;;;;;4896619;29;20140;-58
2021/03/20 09:23:27;;;;;;;13.70;11.15;;;8.20;59.40;;;;;;4889979;29;20060;-58
2021/03/20 09:25:57;;;;;;;13.98;11.38;;;8.30;60.60;;;;;;4890652;29;20056;-59
2021/03/20 09:28:29;;;;;;;13.73;10.07;;;8.10;61.30;;;;;;4896390;29;20100;-58
2021/03/20 09:31:20;;;;;;;17.17;12.38;;;7.90;60.70;;;;;;4901992;29;21767;-53
2021/03/20 09:33:47;;;;;;;12.27;10.90;;;7.70;60.90;;;;;;4895290;29;20557;-47
2021/03/20 09:36:43;;;;;;;12.45;10.68;;;7.50;61.30;;;;;;4927830;29;20149;-46
2021/03/20 09:39:43;;;;;;;15.43;9.85;;;7.30;61.00;;;;;;4922745;29;20056;-47
2021/03/20 09:42:27;;;;;;;13.43;8.70;;;7.20;61.20;;;;;;4985797;28;20612;-47
2021/03/20 09:45:15;;;;;;;12.95;9.50;;;7.70;62.80;;;;;;5003225;28;20109;-51
2021/03/20 09:47:41;;;;;;;10.85;8.48;;;8.10;61.90;;;;;;4989473;28;20501;-46
2021/03/20 09:50:27;;;;;;;17.35;11.38;;;8.40;58.60;;;;;;5005481;28;20077;-48
2021/03/20 09:52:56;;;;;;;25.40;19.95;;;8.50;57.40;;;;;;5005390;28;20053;-44
2021/03/20 09:55:31;;;;;;;12.45;9.13;;;8.50;58.50;;;;;;5005678;28;20046;-46
2021/03/20 09:57:59;;;;;;;14.48;11.18;;;8.40;58.30;;;;;;5004868;28;20766;-46
2021/03/20 10:00:53;;;;;;;15.20;11.43;;;8.50;59.10;;;;;;5006076;28;20042;-43
2021/03/20 10:03:52;;;;;;;11.07;8.25;;;8.50;58.90;;;;;;5005424;28;20049;-45
2021/03/20 10:06:24;;;;;;;9.80;7.85;;;8.60;58.50;;;;;;4907142;29;20809;-47
2021/03/20 10:09:01;;;;;;;14.25;9.85;;;8.60;58.30;;;;;;4906502;29;20489;-45
2021/03/20 10:11:39;;;;;;;16.95;12.77;;;8.70;59.00;;;;;;4906839;29;20648;-45
2021/03/20 10:14:33;;;;;;;13.40;10.30;;;8.90;59.20;;;;;;4905685;29;20587;-43
2021/03/20 10:17:22;;;;;;;16.52;10.90;;;8.90;59.30;;;;;;4906088;29;20537;-44
2021/03/20 10:20:06;;;;;;;15.88;11.43;;;9.40;57.40;;;;;;4906636;29;20185;-48
2021/03/20 10:22:35;;;;;;;16.02;10.90;;;10.10;57.30;;;;;;4906515;29;20051;-46
2021/03/20 10:25:05;;;;;;;13.57;10.57;;;10.20;56.00;;;;;;4907797;29;20051;-45
2021/03/20 10:27:49;;;;;;;21.80;14.55;;;10.50;56.20;;;;;;4905259;29;20056;-45
2021/03/20 10:30:25;;;;;;;14.77;11.18;;;10.70;56.70;;;;;;4908890;29;20685;-45
2021/03/20 10:33:02;;;;;;;22.63;15.80;;;10.30;55.90;;;;;;4906056;29;20433;-45
2021/03/20 10:35:31;;;;;;;11.07;7.97;;;10.30;56.30;;;;;;4905956;29;20565;-44
2021/03/20 10:37:57;;;;;;;12.93;9.50;;;9.90;55.90;;;;;;4911491;29;20062;-48
2021/03/20 10:40:27;;;;;;;12.57;7.65;;;10.00;56.50;;;;;;4910617;29;20159;-46
2021/03/20 10:43:01;;;;;;;12.48;10.38;;;9.80;55.90;;;;;;4995903;28;20561;-47
2021/03/20 10:45:34;;;;;;;11.95;8.07;;;10.00;55.90;;;;;;5006866;28;20073;-44
2021/03/20 10:48:36;;;;;;;10.63;8.23;;;10.00;54.20;;;;;;5007455;28;20046;-44
2021/03/20 10:51:05;;;;;;;8.63;6.43;;;10.00;53.50;;;;;;4948047;28;20106;-45
2021/03/20 10:53:46;;;;;;;8.73;6.68;;;10.10;55.40;;;;;;4945162;29;20067;-46
2021/03/20 10:56:34;;;;;;;8.50;7.47;;;10.30;54.60;;;;;;4950996;28;20640;-46
2021/03/20 10:59:18;;;;;;;8.88;6.95;;;10.00;53.80;;;;;;4945802;28;20065;-46
2021/03/20 11:01:49;;;;;;;12.00;8.82;;;10.00;54.50;;;;;;4944428;29;20054;-45
2021/03/20 11:04:30;;;;;;;8.10;6.22;;;10.00;54.80;;;;;;4943721;29;20048;-47
2021/03/20 11:07:00;;;;;;;8.30;6.47;;;10.30;54.10;;;;;;4936305;28;20415;-46
2021/03/20 11:09:31;;;;;;;8.90;6.82;;;10.30;54.30;;;;;;4939741;29;20051;-47
2021/03/20 11:12:04;;;;;;;11.77;8.27;;;10.30;54.90;;;;;;4947519;29;20105;-46
2021/03/20 11:14:31;;;;;;;16.65;10.50;;;10.20;55.10;;;;;;4933830;29;20513;-45
2021/03/20 11:17:06;;;;;;;15.13;12.18;;;10.00;55.20;;;;;;4946722;29;20053;-45
2021/03/20 11:19:40;;;;;;;12.57;9.27;;;9.90;54.60;;;;;;4946842;28;20065;-45
2021/03/20 11:22:19;;;;;;;17.85;12.35;;;9.60;53.90;;;;;;4946963;28;20535;-46
2021/03/20 11:24:53;;;;;;;13.70;9.10;;;9.80;55.40;;;;;;4965388;28;20108;-47
2021/03/20 11:27:29;;;;;;;14.65;10.23;;;9.80;55.30;;;;;;5000073;28;20046;-45
2021/03/20 11:30:15;;;;;;;11.68;9.13;;;10.10;56.70;;;;;;5005569;28;20050;-52
2021/03/20 11:32:44;;;;;;;13.55;10.18;;;10.20;55.10;;;;;;4996755;28;20056;-46
2021/03/20 11:35:36;;;;;;;16.17;11.35;;;10.20;55.90;;;;;;4988120;28;20049;-47
2021/03/20 11:38:06;;;;;;;15.57;11.45;;;10.30;55.90;;;;;;5008260;28;20655;-47
2021/03/20 11:40:42;;;;;;;12.02;9.60;;;10.50;55.30;;;;;;4984865;28;20137;-44
2021/03/20 11:43:31;;;;;;;9.80;8.48;;;10.20;54.10;;;;;;5007159;28;20057;-45
2021/03/20 11:46:28;;;;;;;10.00;8.32;;;10.50;54.80;;;;;;5008575;28;20056;-45
2021/03/20 11:49:01;;;;;;;9.75;7.35;;;10.30;55.30;;;;;;5007952;28;20154;-45
2021/03/20 11:51:30;;;;;;;8.43;7.05;;;10.70;54.40;;;;;;5010190;28;20046;-46
2021/03/20 11:54:00;;;;;;;7.35;6.57;;;10.80;54.30;;;;;;5007460;28;20064;-46
2021/03/20 11:56:40;;;;;;;8.60;6.82;;;10.90;54.20;;;;;;5004531;28;20069;-48
2021/03/20 11:59:31;;;;;;;12.10;10.68;;;10.70;53.80;;;;;;5011399;28;20037;-45
2021/03/20 12:02:03;;;;;;;11.63;10.32;;;10.70;54.30;;;;;;5005906;28;20132;-45
2021/03/20 12:04:33;;;;;;;9.98;7.78;;;10.80;54.20;;;;;;4985986;28;20061;-44
2021/03/20 12:07:18;;;;;;;8.20;6.22;;;10.70;54.50;;;;;;5008065;28;20046;-46
2021/03/20 12:09:44;;;;;;;9.48;7.63;;;10.40;53.90;;;;;;5006349;28;20057;-47
2021/03/20 12:12:10;;;;;;;6.88;6.15;;;10.30;54.60;;;;;;4989609;28;20058;-45
2021/03/20 12:14:39;;;;;;;8.80;6.90;;;10.10;57.20;;;;;;5010705;28;20048;-47
2021/03/20 12:17:11;;;;;;;8.63;6.28;;;10.00;57.20;;;;;;5007737;28;20076;-45
2021/03/20 12:19:55;;;;;;;11.90;6.50;;;10.00;58.00;;;;;;5014401;28;20081;-45
2021/03/20 12:22:36;;;;;;;9.35;6.93;;;10.00;56.50;;;;;;5007396;28;20541;-46
2021/03/20 12:25:25;;;;;;;7.90;6.45;;;9.60;58.10;;;;;;4998130;28;20747;-46
2021/03/20 12:28:24;;;;;;;6.63;5.18;;;9.60;58.90;;;;;;4985065;28;20061;-45
2021/03/20 12:31:24;;;;;;;9.65;5.88;;;9.30;58.70;;;;;;5006030;28;20046;-46
2021/03/20 12:34:08;;;;;;;8.18;6.32;;;9.30;60.00;;;;;;5009400;28;20057;-47
2021/03/20 12:36:49;;;;;;;7.85;6.18;;;9.30;60.50;;;;;;5006752;28;20145;-52
2021/03/20 12:39:19;;;;;;;10.68;6.63;;;9.50;60.60;;;;;;5005854;28;20706;-46
2021/03/20 12:41:48;;;;;;;7.25;6.47;;;9.60;60.10;;;;;;5006806;28;20597;-47
2021/03/20 12:44:25;;;;;;;7.93;6.47;;;10.00;60.60;;;;;;5006519;28;20097;-46
2021/03/20 12:46:54;;;;;;;7.63;6.70;;;9.80;59.60;;;;;;5004941;28;20045;-46
2021/03/20 12:49:22;;;;;;;9.00;6.70;;;9.90;60.30;;;;;;5006715;28;20052;-47
2021/03/20 12:51:53;;;;;;;7.93;6.35;;;10.00;60.30;;;;;;5009938;28;20053;-50
2021/03/20 12:54:41;;;;;;;9.98;6.03;;;10.00;60.10;;;;;;5008220;28;20075;-45
2021/03/20 12:57:11;;;;;;;9.27;6.35;;;9.80;59.20;;;;;;5011069;28;20116;-47
2021/03/20 12:59:39;;;;;;;9.23;5.97;;;9.70;60.10;;;;;;5006251;28;20050;-46
2021/03/20 13:02:06;;;;;;;7.43;6.65;;;9.50;60.70;;;;;;5014195;28;20034;-46
2021/03/20 13:04:32;;;;;;;7.53;6.18;;;9.70;60.60;;;;;;5008400;28;20069;-45
2021/03/20 13:07:00;;;;;;;9.00;6.65;;;9.50;61.00;;;;;;5007270;28;20449;-47
2021/03/20 13:09:25;;;;;;;8.45;5.50;;;9.30;61.60;;;;;;5008670;28;20042;-47
2021/03/20 13:11:56;;;;;;;9.73;5.97;;;9.20;62.60;;;;;;5013207;28;20048;-45
2021/03/20 13:14:28;;;;;;;8.25;6.43;;;9.10;63.20;;;;;;5005483;28;20526;-45
2021/03/20 13:16:54;;;;;;;11.73;6.78;;;8.80;64.10;;;;;;5006990;28;20068;-48
2021/03/20 13:19:21;;;;;;;18.48;12.80;;;8.70;65.00;;;;;;5010211;28;20052;-46
2021/03/20 13:21:50;;;;;;;13.15;10.77;;;8.70;65.40;;;;;;5010136;28;20046;-46
2021/03/20 13:24:18;;;;;;;11.55;8.30;;;8.60;65.70;;;;;;5009943;28;20192;-45
2021/03/20 13:26:53;;;;;;;11.70;8.82;;;8.50;66.80;;;;;;5009850;28;20046;-45
2021/03/20 13:29:21;;;;;;;11.68;8.25;;;8.40;67.90;;;;;;5009682;28;20058;-45
2021/03/20 13:31:51;;;;;;;10.50;8.25;;;8.20;68.50;;;;;;5009739;28;20045;-45